Blue Moon Of Tuana — YMA2195 — position and weather

sailwx.info

Track history (hours):
 
Tides and Currents Weather Stations Pressure Air Temp Water Temp Dewpoint Dewpoint Depression Visibility Wind Speed Wind Dir Waves Ship Positions

Blue Moon Of Tuana

Last reported at 2017-Oct-31 13:20 UTC. Time now 2017-Nov-20 19:11 UTC.
Position N 36°50' E 030°36'.
Warning: this ship's position is 20 days out of date.

Type: Passenger vessel. MMSI: 271020092.

Date/timePositionNaut miles runAvg speedWind from/ knotsBaromVisibWave heightAir tempDewpointWater temp
2017-Oct-31 13:20N 36°50' E 030°36'0 0.0
2017-Oct-31 12:59N 36°50' E 030°36'1 2.3
2017-Oct-31 12:30N 36°49' E 030°36'1 2.3
2017-Oct-31 11:55N 36°48' E 030°35'0 0.1
2017-Oct-31 11:28N 36°48' E 030°35'0 0.0
2017-Oct-31 10:58N 36°48' E 030°35'0 0.0
2017-Oct-31 10:19N 36°48' E 030°35'0 0.0
2017-Oct-31 09:58N 36°48' E 030°35'0 0.0
2017-Oct-31 09:07N 36°48' E 030°35'0 0.0
2017-Oct-31 09:00N 36°48' E 030°35'3 5.5
2017-Oct-31 08:30N 36°49' E 030°38'4 8.9
2017-Oct-31 08:00N 36°50' E 030°43'3 4.1
2017-Oct-31 07:14N 36°51' E 030°47'1 3.2
2017-Oct-31 06:58N 36°51' E 030°46'4 8.3
2017-Oct-31 06:30N 36°51' E 030°41'4 7.9
2017-Oct-31 06:00N 36°50' E 030°36'  
2017-Oct-27 16:07N 36°50' E 030°36'0 3.1
2017-Oct-27 16:00N 36°50' E 030°37'2 4.5
2017-Oct-27 15:30N 36°48' E 030°35'0 0.0
2017-Oct-27 15:00N 36°48' E 030°35'0 0.0
2017-Oct-27 14:30N 36°48' E 030°35'0 0.0
2017-Oct-27 14:00N 36°48' E 030°35'0 0.0
2017-Oct-27 13:30N 36°48' E 030°35'2 0.1
2017-Oct-26 19:01N 36°50' E 030°36'0 0.0
2017-Oct-26 18:58N 36°50' E 030°36'0 0.3
2017-Oct-26 18:28N 36°50' E 030°37'0 0.0
2017-Oct-26 17:58N 36°50' E 030°37'1 1.1
2017-Oct-26 17:30N 36°50' E 030°37'1 1.4
2017-Oct-26 17:00N 36°50' E 030°36'0 0.0
2017-Oct-26 16:30N 36°50' E 030°36'  
2017-Oct-23 13:44N 36°50' E 030°36'0 0.0
2017-Oct-23 13:29N 36°50' E 030°36'0 0.3
2017-Oct-23 13:00N 36°50' E 030°36'2 3.8
2017-Oct-23 12:29N 36°48' E 030°35'0 0.0
2017-Oct-23 11:59N 36°48' E 030°35'0 0.0
2017-Oct-23 11:29N 36°48' E 030°35'0 0.0
2017-Oct-23 10:59N 36°48' E 030°35'2 3.9
2017-Oct-23 10:30N 36°49' E 030°37'4 8.7
2017-Oct-23 10:00N 36°50' E 030°43'3 5.3
2017-Oct-23 09:30N 36°51' E 030°46'1 2.3
2017-Oct-23 09:00N 36°51' E 030°45'4 8.0
2017-Oct-23 08:30N 36°50' E 030°40'3 0.1
2017-Oct-21 16:26N 36°50' E 030°36'0 0.0
2017-Oct-21 15:59N 36°50' E 030°36'2 3.2
2017-Oct-21 15:30N 36°48' E 030°36'0 0.9
2017-Oct-21 15:00N 36°48' E 030°35'0 0.0
2017-Oct-21 14:00N 36°48' E 030°35'0 0.0
2017-Oct-21 13:30N 36°48' E 030°35'  
Track history (hours):
 
Tides and Currents Weather Stations Pressure Air Temp Water Temp Dewpoint Dewpoint Depression Visibility Wind Speed Wind Dir Waves Ship Positions

Blue Moon Of Tuana

Last reported at 2017-Oct-31 13:20 UTC. Time now 2017-Nov-20 19:11 UTC.
Position N 36°50' E 030°36'.
Warning: this ship's position is 20 days out of date.

Type: Passenger vessel. MMSI: 271020092.

Date/timePositionNaut miles runAvg speedWind from/ knotsBaromVisibWave heightAir tempDewpointWater temp
2017-Oct-31 13:20N 36°50' E 030°36'0 0.0
2017-Oct-31 12:59N 36°50' E 030°36'1 2.3
2017-Oct-31 12:30N 36°49' E 030°36'1 2.3
2017-Oct-31 11:55N 36°48' E 030°35'0 0.1
2017-Oct-31 11:28N 36°48' E 030°35'0 0.0
2017-Oct-31 10:58N 36°48' E 030°35'0 0.0
2017-Oct-31 10:19N 36°48' E 030°35'0 0.0
2017-Oct-31 09:58N 36°48' E 030°35'0 0.0
2017-Oct-31 09:07N 36°48' E 030°35'0 0.0
2017-Oct-31 09:00N 36°48' E 030°35'3 5.5
2017-Oct-31 08:30N 36°49' E 030°38'4 8.9
2017-Oct-31 08:00N 36°50' E 030°43'3 4.1
2017-Oct-31 07:14N 36°51' E 030°47'1 3.2
2017-Oct-31 06:58N 36°51' E 030°46'4 8.3
2017-Oct-31 06:30N 36°51' E 030°41'4 7.9
2017-Oct-31 06:00N 36°50' E 030°36'  
2017-Oct-27 16:07N 36°50' E 030°36'0 3.1
2017-Oct-27 16:00N 36°50' E 030°37'2 4.5
2017-Oct-27 15:30N 36°48' E 030°35'0 0.0
2017-Oct-27 15:00N 36°48' E 030°35'0 0.0
2017-Oct-27 14:30N 36°48' E 030°35'0 0.0
2017-Oct-27 14:00N 36°48' E 030°35'0 0.0
2017-Oct-27 13:30N 36°48' E 030°35'2 0.1
2017-Oct-26 19:01N 36°50' E 030°36'0 0.0
2017-Oct-26 18:58N 36°50' E 030°36'0 0.3
2017-Oct-26 18:28N 36°50' E 030°37'0 0.0
2017-Oct-26 17:58N 36°50' E 030°37'1 1.1
2017-Oct-26 17:30N 36°50' E 030°37'1 1.4
2017-Oct-26 17:00N 36°50' E 030°36'0 0.0
2017-Oct-26 16:30N 36°50' E 030°36'  
2017-Oct-23 13:44N 36°50' E 030°36'0 0.0
2017-Oct-23 13:29N 36°50' E 030°36'0 0.3
2017-Oct-23 13:00N 36°50' E 030°36'2 3.8
2017-Oct-23 12:29N 36°48' E 030°35'0 0.0
2017-Oct-23 11:59N 36°48' E 030°35'0 0.0
2017-Oct-23 11:29N 36°48' E 030°35'0 0.0
2017-Oct-23 10:59N 36°48' E 030°35'2 3.9
2017-Oct-23 10:30N 36°49' E 030°37'4 8.7
2017-Oct-23 10:00N 36°50' E 030°43'3 5.3
2017-Oct-23 09:30N 36°51' E 030°46'1 2.3
2017-Oct-23 09:00N 36°51' E 030°45'4 8.0
2017-Oct-23 08:30N 36°50' E 030°40'3 0.1
2017-Oct-21 16:26N 36°50' E 030°36'0 0.0
2017-Oct-21 15:59N 36°50' E 030°36'2 3.2
2017-Oct-21 15:30N 36°48' E 030°36'0 0.9
2017-Oct-21 15:00N 36°48' E 030°35'0 0.0
2017-Oct-21 14:00N 36°48' E 030°35'0 0.0
2017-Oct-21 13:30N 36°48' E 030°35'  

Dump ship's entire track history